createdAt,value
2023-01-07T00:00:45.800Z,57.95
2023-01-07T00:01:45.721Z,58.36
2023-01-07T00:02:45.743Z,56.31
2023-01-07T00:03:45.768Z,55.77
2023-01-07T00:04:45.674Z,56.08
2023-01-07T00:05:45.677Z,56.39
2023-01-07T00:06:45.652Z,58.05
2023-01-07T00:07:45.752Z,58.26
2023-01-07T00:08:45.633Z,58.26
2023-01-07T00:09:45.646Z,57.95
2023-01-07T00:10:45.609Z,57.01
2023-01-07T00:11:45.611Z,56.29
2023-01-07T00:12:45.588Z,56.62
2023-01-07T00:13:45.600Z,57.67
2023-01-07T00:14:45.565Z,56.08
2023-01-07T00:15:45.648Z,56.73
2023-01-07T00:16:45.540Z,58.70
2023-01-07T00:17:45.540Z,58.62
2023-01-07T00:18:45.531Z,56.73
2023-01-07T00:19:45.532Z,56.83
2023-01-07T00:20:45.515Z,56.62
2023-01-07T00:21:45.550Z,56.73
2023-01-07T00:22:45.478Z,57.04
2023-01-07T00:23:45.578Z,57.45
2023-01-07T00:24:45.460Z,58.29
2023-01-07T00:25:45.456Z,58.91
2023-01-07T00:26:45.438Z,58.50
2023-01-07T00:27:45.460Z,58.18
2023-01-07T00:28:45.415Z,56.21
2023-01-07T00:29:45.417Z,57.98
2023-01-07T00:30:45.406Z,60.19
2023-01-07T00:31:45.439Z,58.73
2023-01-07T00:32:45.378Z,58.00
2023-01-07T00:33:45.390Z,59.56
2023-01-07T00:34:45.350Z,61.04
2023-01-07T00:35:45.335Z,60.00
2023-01-07T00:36:45.362Z,58.23
2023-01-07T00:37:45.327Z,57.38
2023-01-07T00:38:45.310Z,59.88
2023-01-07T00:39:45.412Z,60.60
2023-01-07T00:40:45.285Z,57.92
2023-01-07T00:41:45.283Z,58.83
2023-01-07T00:42:45.263Z,59.25
2023-01-07T00:43:45.249Z,58.11
2023-01-07T00:44:45.246Z,57.48
2023-01-07T00:45:45.269Z,58.00
2023-01-07T00:46:45.308Z,58.11
2023-01-07T00:47:45.216Z,57.87
2023-01-07T00:48:45.201Z,59.25
2023-01-07T00:49:45.184Z,58.50
2023-01-07T00:50:45.177Z,59.45
2023-01-07T00:51:45.193Z,59.45
2023-01-07T00:52:45.158Z,59.25
2023-01-07T00:53:45.154Z,59.14
2023-01-07T00:54:45.135Z,57.77
2023-01-07T00:55:45.250Z,57.84
2023-01-07T00:56:45.111Z,57.77
2023-01-07T00:57:45.144Z,58.60
2023-01-07T00:58:45.103Z,60.60
2023-01-07T00:59:45.080Z,60.60
2023-01-07T01:00:45.112Z,61.46
2023-01-07T01:01:45.251Z,60.11
2023-01-07T01:02:45.103Z,59.28
2023-01-07T01:03:45.069Z,57.56
2023-01-07T01:04:45.049Z,57.98
2023-01-07T01:05:45.023Z,57.24
2023-01-07T01:06:45.008Z,56.73
2023-01-07T01:07:44.990Z,56.41
2023-01-07T01:08:44.991Z,56.18
2023-01-07T01:09:44.999Z,55.48
2023-01-07T01:10:44.960Z,56.21
2023-01-07T01:11:45.063Z,57.95
2023-01-07T01:12:44.940Z,56.83
2023-01-07T01:13:44.937Z,56.52
2023-01-07T01:14:44.928Z,56.29
2023-01-07T01:15:44.932Z,55.58
2023-01-07T01:16:44.944Z,56.83
2023-01-07T01:17:44.884Z,56.31
2023-01-07T01:18:44.889Z,56.73
2023-01-07T01:19:44.859Z,56.00
2023-01-07T01:20:44.856Z,56.10
2023-01-07T01:21:44.870Z,56.52
2023-01-07T01:22:44.834Z,57.01
2023-01-07T01:23:44.834Z,57.74
2023-01-07T01:24:44.809Z,58.08
2023-01-07T01:25:44.797Z,58.31
2023-01-07T01:26:44.790Z,57.67
2023-01-07T01:27:44.896Z,56.23
2023-01-07T01:28:44.777Z,58.08
2023-01-07T01:29:44.752Z,57.77
2023-01-07T01:30:44.757Z,56.81
2023-01-07T01:31:44.772Z,56.52
2023-01-07T01:32:44.723Z,57.67
2023-01-07T01:33:44.740Z,56.73
2023-01-07T01:34:44.711Z,56.62
2023-01-07T01:35:44.688Z,56.21
2023-01-07T01:36:44.693Z,56.10
2023-01-07T01:37:44.668Z,57.04
2023-01-07T01:38:44.668Z,56.41
2023-01-07T01:39:44.682Z,57.24
2023-01-07T01:40:44.643Z,56.41
2023-01-07T01:41:44.624Z,56.31
2023-01-07T01:42:44.615Z,55.69
2023-01-07T01:43:44.635Z,56.00
2023-01-07T01:44:44.605Z,55.48
2023-01-07T01:45:44.610Z,54.94
2023-01-07T01:46:44.639Z,54.73
2023-01-07T01:47:44.557Z,54.83
2023-01-07T01:48:44.565Z,55.17
2023-01-07T01:49:44.543Z,55.35
2023-01-07T01:50:44.528Z,54.42
2023-01-07T01:51:44.557Z,55.77
2023-01-07T01:52:45.718Z,56.44
2023-01-07T01:53:44.504Z,55.69
2023-01-07T01:54:44.590Z,55.58
2023-01-07T01:55:44.500Z,55.35
2023-01-07T01:56:44.487Z,54.11
2023-01-07T01:57:44.504Z,54.94
2023-01-07T01:58:44.452Z,54.11
2023-01-07T01:59:44.570Z,54.32
2023-01-07T02:00:44.521Z,54.39
2023-01-07T02:01:44.643Z,55.22
2023-01-07T02:02:44.469Z,54.71
2023-01-07T02:03:44.421Z,55.74
2023-01-07T02:04:44.401Z,55.46
2023-01-07T02:05:44.372Z,54.83
2023-01-07T02:06:44.356Z,55.33
2023-01-07T02:07:44.346Z,54.11
2023-01-07T02:08:44.343Z,56.08
2023-01-07T02:09:44.363Z,57.22
2023-01-07T02:10:44.323Z,54.94
2023-01-07T02:11:44.316Z,54.39
2023-01-07T02:12:44.303Z,56.05
2023-01-07T02:13:44.278Z,55.95
2023-01-07T02:14:44.273Z,56.18
2023-01-07T02:15:44.383Z,55.95
2023-01-07T02:16:44.379Z,56.88
2023-01-07T02:17:44.234Z,56.49
2023-01-07T02:18:44.246Z,57.53
2023-01-07T02:19:44.215Z,57.74
2023-01-07T02:20:44.209Z,57.22
2023-01-07T02:21:44.248Z,57.24
2023-01-07T02:22:44.188Z,56.91
2023-01-07T02:23:44.170Z,58.08
2023-01-07T02:24:44.170Z,57.45
2023-01-07T02:25:44.159Z,57.67
2023-01-07T02:26:44.163Z,57.04
2023-01-07T02:27:44.165Z,57.95
2023-01-07T02:28:44.119Z,57.67
2023-01-07T02:29:44.108Z,58.15
2023-01-07T02:30:44.104Z,56.08
2023-01-07T02:31:44.283Z,56.18
2023-01-07T02:32:44.099Z,58.18
2023-01-07T02:33:44.085Z,59.56
2023-01-07T02:34:44.066Z,59.45
2023-01-07T02:35:44.045Z,60.19
2023-01-07T02:36:44.035Z,56.62
2023-01-07T02:37:44.029Z,56.31
2023-01-07T02:38:44.120Z,56.62
2023-01-07T02:39:44.035Z,56.81
2023-01-07T02:40:43.990Z,57.56
2023-01-07T02:41:43.980Z,57.98
2023-01-07T02:42:43.965Z,56.62
2023-01-07T02:43:43.960Z,55.98
2023-01-07T02:44:43.954Z,55.79
2023-01-07T02:45:44.016Z,55.46
2023-01-07T02:46:43.924Z,56.08
2023-01-07T02:47:43.936Z,56.18
2023-01-07T02:48:43.916Z,56.08
2023-01-07T02:49:43.905Z,58.29
2023-01-07T02:50:43.879Z,57.64
2023-01-07T02:51:43.898Z,58.36
2023-01-07T02:52:43.857Z,58.29
2023-01-07T02:53:43.851Z,57.77
2023-01-07T02:54:43.848Z,56.70
2023-01-07T02:55:43.829Z,56.62
2023-01-07T02:56:43.817Z,55.04
2023-01-07T02:57:43.834Z,55.35
2023-01-07T02:58:43.800Z,56.08
2023-01-07T02:59:43.789Z,56.29
2023-01-07T03:00:43.807Z,56.18
2023-01-07T03:01:43.973Z,57.98
2023-01-07T03:02:43.761Z,57.67
2023-01-07T03:03:43.942Z,57.45
2023-01-07T03:04:43.726Z,57.98
2023-01-07T03:05:43.721Z,58.60
2023-01-07T03:06:43.820Z,59.88
2023-01-07T03:07:43.708Z,59.69
2023-01-07T03:08:43.690Z,60.52
2023-01-07T03:09:43.706Z,58.83
2023-01-07T03:10:43.667Z,57.59
2023-01-07T03:11:43.659Z,56.73
2023-01-07T03:12:43.661Z,56.41
2023-01-07T03:13:43.639Z,57.24
2023-01-07T03:14:43.628Z,58.05
2023-01-07T03:15:43.647Z,57.45
2023-01-07T03:16:43.609Z,56.81
2023-01-07T03:17:43.596Z,55.98
2023-01-07T03:18:43.596Z,55.87
2023-01-07T03:19:43.686Z,55.66
2023-01-07T03:20:43.555Z,56.18
2023-01-07T03:21:43.579Z,56.39
2023-01-07T03:22:43.534Z,55.56
2023-01-07T03:23:43.527Z,54.11
2023-01-07T03:24:43.524Z,55.58
2023-01-07T03:25:43.508Z,55.25
2023-01-07T03:26:43.514Z,55.46
2023-01-07T03:27:43.531Z,54.08
2023-01-07T03:28:43.472Z,55.12
2023-01-07T03:29:43.461Z,55.54
2023-01-07T03:30:43.461Z,55.77
2023-01-07T03:31:43.498Z,55.66
2023-01-07T03:32:43.428Z,55.15
2023-01-07T03:33:43.447Z,54.21
2023-01-07T03:34:43.410Z,55.56
2023-01-07T03:35:43.532Z,55.85
2023-01-07T03:36:43.385Z,55.85
2023-01-07T03:37:43.372Z,53.88
2023-01-07T03:38:43.366Z,55.33
2023-01-07T03:39:43.382Z,53.98
2023-01-07T03:40:43.457Z,54.08
2023-01-07T03:41:43.328Z,55.64
2023-01-07T03:42:43.325Z,55.02
2023-01-07T03:43:43.307Z,55.33
2023-01-07T03:44:43.307Z,55.02
2023-01-07T03:45:43.371Z,55.02
2023-01-07T03:46:43.290Z,55.22
2023-01-07T03:47:43.284Z,54.91
2023-01-07T03:48:43.255Z,55.02
2023-01-07T03:49:43.254Z,55.12
2023-01-07T03:50:43.238Z,55.02
2023-01-07T03:51:43.339Z,54.39
2023-01-07T03:52:43.235Z,54.50
2023-01-07T03:53:43.203Z,55.02
2023-01-07T03:54:43.194Z,55.25
2023-01-07T03:55:43.179Z,55.33
2023-01-07T03:56:43.172Z,55.12
2023-01-07T03:57:43.206Z,55.98
2023-01-07T03:58:43.162Z,55.98
2023-01-07T03:59:43.131Z,55.12
2023-01-07T04:00:43.158Z,54.91
2023-01-07T04:01:43.258Z,54.91
2023-01-07T04:02:43.110Z,55.43
2023-01-07T04:03:43.130Z,55.33
2023-01-07T04:04:43.147Z,55.95
2023-01-07T04:05:43.086Z,57.74
2023-01-07T04:06:43.076Z,56.41
2023-01-07T04:07:43.201Z,55.56
2023-01-07T04:08:43.042Z,55.46
2023-01-07T04:09:43.059Z,55.56
2023-01-07T04:10:43.052Z,56.18
2023-01-07T04:11:43.007Z,56.18
2023-01-07T04:12:43.002Z,58.05
2023-01-07T04:13:42.989Z,58.05
2023-01-07T04:14:43.003Z,57.67
2023-01-07T04:15:42.959Z,56.73
2023-01-07T04:16:43.017Z,56.81
2023-01-07T04:17:42.971Z,56.29
2023-01-07T04:18:42.936Z,56.29
2023-01-07T04:19:42.917Z,57.98
2023-01-07T04:20:42.919Z,58.08
2023-01-07T04:21:42.909Z,58.00
2023-01-07T04:22:42.927Z,56.41
2023-01-07T04:23:42.990Z,55.98
2023-01-07T04:24:42.870Z,56.21
2023-01-07T04:25:42.852Z,55.66
2023-01-07T04:26:42.876Z,54.73
2023-01-07T04:27:42.834Z,55.15
2023-01-07T04:28:42.858Z,55.46
2023-01-07T04:29:42.813Z,56.29
2023-01-07T04:30:42.918Z,55.85
2023-01-07T04:31:42.788Z,55.33
2023-01-07T04:32:42.780Z,54.91
2023-01-07T04:33:42.779Z,55.43
2023-01-07T04:34:42.804Z,55.64
2023-01-07T04:35:42.744Z,54.81
2023-01-07T04:36:42.744Z,55.33
2023-01-07T04:37:42.735Z,56.16
2023-01-07T04:38:42.718Z,56.68
2023-01-07T04:39:42.720Z,55.64
2023-01-07T04:40:42.726Z,55.35
2023-01-07T04:41:42.683Z,55.02
2023-01-07T04:42:42.671Z,54.91
2023-01-07T04:43:42.673Z,54.16
2023-01-07T04:44:42.650Z,54.89
2023-01-07T04:45:42.633Z,54.27
2023-01-07T04:46:42.668Z,54.60
2023-01-07T04:47:42.612Z,54.99
2023-01-07T04:48:42.618Z,55.54
2023-01-07T04:49:42.601Z,55.85
2023-01-07T04:50:42.586Z,56.08
2023-01-07T04:51:42.572Z,55.25
2023-01-07T04:52:42.591Z,53.98
2023-01-07T04:53:42.554Z,52.73
2023-01-07T04:54:42.559Z,54.06
2023-01-07T04:55:43.914Z,54.89
2023-01-07T04:56:42.520Z,54.99
2023-01-07T04:57:42.513Z,55.41
2023-01-07T04:58:42.509Z,56.34
2023-01-07T04:59:42.486Z,57.82
2023-01-07T05:00:42.500Z,56.39
2023-01-07T05:01:42.723Z,60.29
2023-01-07T05:02:42.455Z,60.73
2023-01-07T05:03:42.442Z,58.11
2023-01-07T05:04:42.522Z,57.45
2023-01-07T05:05:42.427Z,58.83
2023-01-07T05:06:42.427Z,56.62
2023-01-07T05:07:42.401Z,55.87
2023-01-07T05:08:42.394Z,55.98
2023-01-07T05:09:42.377Z,55.64
2023-01-07T05:10:42.404Z,55.85
2023-01-07T05:11:42.581Z,57.84
2023-01-07T05:12:42.346Z,57.53
2023-01-07T05:13:42.347Z,55.77
2023-01-07T05:14:42.329Z,55.25
2023-01-07T05:15:42.315Z,56.16
2023-01-07T05:16:42.398Z,56.05
2023-01-07T05:17:42.305Z,56.18
2023-01-07T05:18:42.283Z,56.47
2023-01-07T05:19:42.273Z,56.99
2023-01-07T05:20:42.262Z,57.61
2023-01-07T05:21:42.250Z,58.05
2023-01-07T05:22:42.277Z,58.36
2023-01-07T05:23:42.243Z,56.08
2023-01-07T05:24:42.248Z,57.22
2023-01-07T05:25:42.206Z,56.68
2023-01-07T05:26:42.221Z,56.68
2023-01-07T05:27:42.310Z,56.16
2023-01-07T05:28:42.201Z,56.34
2023-01-07T05:29:42.176Z,56.16
2023-01-07T05:30:42.169Z,55.82
2023-01-07T05:31:42.140Z,55.72
2023-01-07T05:32:42.133Z,54.99
2023-01-07T05:33:42.128Z,55.07
2023-01-07T05:34:42.177Z,54.16
2023-01-07T05:35:42.109Z,56.76
2023-01-07T05:36:42.091Z,56.45
2023-01-07T05:37:42.073Z,57.38
2023-01-07T05:38:42.070Z,56.45
2023-01-07T05:39:42.067Z,55.20
2023-01-07T05:40:42.190Z,55.17
2023-01-07T05:41:42.031Z,55.48
2023-01-07T05:42:42.023Z,54.86
2023-01-07T05:43:42.129Z,54.96
2023-01-07T05:44:42.004Z,54.03
2023-01-07T05:45:41.992Z,54.83
2023-01-07T05:46:42.098Z,54.96
2023-01-07T05:47:41.980Z,54.83
2023-01-07T05:48:41.964Z,54.13
2023-01-07T05:49:41.953Z,55.15
2023-01-07T05:50:41.948Z,53.90
2023-01-07T05:51:41.950Z,54.11
2023-01-07T05:52:41.918Z,56.00
2023-01-07T05:53:41.904Z,56.41
2023-01-07T05:54:41.928Z,56.24
2023-01-07T05:55:41.994Z,56.34
2023-01-07T05:56:41.871Z,55.72
2023-01-07T05:57:41.859Z,54.34
2023-01-07T05:58:41.855Z,54.13
2023-01-07T05:59:41.876Z,53.30
2023-01-07T06:00:41.833Z,53.20
2023-01-07T06:01:41.827Z,53.80
2023-01-07T06:02:41.815Z,54.11
2023-01-07T06:03:41.887Z,56.21
2023-01-07T06:04:41.875Z,56.55
2023-01-07T06:05:41.823Z,55.93
2023-01-07T06:06:41.769Z,56.45
2023-01-07T06:07:41.767Z,57.79
2023-01-07T06:08:41.745Z,57.92
2023-01-07T06:09:41.753Z,58.23
2023-01-07T06:10:41.723Z,58.65
2023-01-07T06:11:41.733Z,58.65
2023-01-07T06:12:41.702Z,58.73
2023-01-07T06:13:41.693Z,58.62
2023-01-07T06:14:41.682Z,57.17
2023-01-07T06:15:41.833Z,55.62
2023-01-07T06:16:41.659Z,57.35
2023-01-07T06:17:41.670Z,59.66
2023-01-07T06:18:41.655Z,60.60
2023-01-07T06:19:41.623Z,60.60
2023-01-07T06:20:41.644Z,59.89
2023-01-07T06:21:41.624Z,57.17
2023-01-07T06:22:41.595Z,57.38
2023-01-07T06:23:41.654Z,55.41
2023-01-07T06:24:41.582Z,56.13
2023-01-07T06:25:41.570Z,57.79
2023-01-07T06:26:41.557Z,57.17
2023-01-07T06:27:41.554Z,56.93
2023-01-07T06:28:41.531Z,56.45
2023-01-07T06:29:41.535Z,56.34
2023-01-07T06:30:41.509Z,56.45
2023-01-07T06:31:41.617Z,55.41
2023-01-07T06:32:41.509Z,55.17
2023-01-07T06:33:41.476Z,54.21
2023-01-07T06:34:41.464Z,53.69
2023-01-07T06:35:41.479Z,55.25
2023-01-07T06:36:41.444Z,55.48
2023-01-07T06:37:41.429Z,55.66
2023-01-07T06:38:41.439Z,55.46
2023-01-07T06:39:41.411Z,55.79
2023-01-07T06:40:41.407Z,55.38
2023-01-07T06:41:41.423Z,55.25
2023-01-07T06:42:41.378Z,55.25
2023-01-07T06:43:41.373Z,54.11
2023-01-07T06:44:41.377Z,55.87
2023-01-07T06:45:41.762Z,56.00
2023-01-07T06:46:41.382Z,55.27
2023-01-07T06:47:41.448Z,55.15
2023-01-07T06:48:41.316Z,55.58
2023-01-07T06:49:41.316Z,55.07
2023-01-07T06:50:41.292Z,55.79
2023-01-07T06:51:41.279Z,55.87
2023-01-07T06:52:41.281Z,55.66
2023-01-07T06:53:41.292Z,56.18
2023-01-07T06:54:41.251Z,56.08
2023-01-07T06:55:41.244Z,55.98
2023-01-07T06:56:41.238Z,55.56
2023-01-07T06:57:41.216Z,55.22
2023-01-07T06:58:41.212Z,56.18
2023-01-07T06:59:41.226Z,56.62
2023-01-07T07:00:41.180Z,56.31
2023-01-07T07:01:41.312Z,55.48
2023-01-07T07:02:41.240Z,55.38
2023-01-07T07:03:41.280Z,56.21
2023-01-07T07:04:41.140Z,55.35
2023-01-07T07:05:41.168Z,55.66
2023-01-07T07:06:41.134Z,55.56
2023-01-07T07:07:41.109Z,55.87
2023-01-07T07:08:41.098Z,54.94
2023-01-07T07:09:41.086Z,54.11
2023-01-07T07:10:41.091Z,53.88
2023-01-07T07:11:41.114Z,53.90
2023-01-07T07:12:41.079Z,54.19
2023-01-07T07:13:41.045Z,54.50
2023-01-07T07:14:41.044Z,55.85
2023-01-07T07:15:41.051Z,55.54
2023-01-07T07:16:41.009Z,55.33
2023-01-07T07:17:41.037Z,53.98
2023-01-07T07:18:40.987Z,54.08
2023-01-07T07:19:41.113Z,54.19
2023-01-07T07:20:40.967Z,55.12
2023-01-07T07:21:40.957Z,54.60
2023-01-07T07:22:40.944Z,55.12
2023-01-07T07:23:41.077Z,55.12
2023-01-07T07:24:40.924Z,55.85
2023-01-07T07:25:40.919Z,56.57
2023-01-07T07:26:40.901Z,57.64
2023-01-07T07:27:40.893Z,58.05
2023-01-07T07:28:40.884Z,57.45
2023-01-07T07:29:40.928Z,59.84
2023-01-07T07:30:45.492Z,58.59
2023-01-07T07:31:41.893Z,57.95
2023-01-07T07:32:40.836Z,57.76
2023-01-07T07:33:40.831Z,58.15
2023-01-07T07:34:40.816Z,58.05
2023-01-07T07:35:40.946Z,55.04
2023-01-07T07:36:40.797Z,54.32
2023-01-07T07:37:40.798Z,53.36
2023-01-07T07:38:40.771Z,52.74
2023-01-07T07:39:40.763Z,57.50
2023-01-07T07:40:40.797Z,57.84
2023-01-07T07:41:40.764Z,57.43
2023-01-07T07:43:11.788Z,57.95
2023-01-07T07:43:41.719Z,56.29
2023-01-07T07:44:40.706Z,54.08
2023-01-07T07:45:40.762Z,55.74
2023-01-07T07:46:42.053Z,56.26
2023-01-07T07:47:40.710Z,57.64
2023-01-07T07:48:40.666Z,57.84
2023-01-07T07:49:40.661Z,56.29
2023-01-07T07:50:40.640Z,55.98
2023-01-07T07:51:40.767Z,56.16
2023-01-07T07:52:40.621Z,56.68
2023-01-07T07:53:40.656Z,55.95
2023-01-07T07:54:40.598Z,55.82
2023-01-07T07:55:40.589Z,55.82
2023-01-07T07:56:40.576Z,55.30
2023-01-07T07:57:40.570Z,55.28
2023-01-07T07:58:40.562Z,55.90
2023-01-07T07:59:40.600Z,56.21
2023-01-07T08:00:40.533Z,58.31
2023-01-07T08:01:40.720Z,60.72
2023-01-07T08:02:40.513Z,60.20
2023-01-07T08:03:40.572Z,57.84
2023-01-07T08:04:40.491Z,57.71
2023-01-07T08:05:40.518Z,57.06
2023-01-07T08:06:40.471Z,57.92
2023-01-07T08:07:40.592Z,59.34
2023-01-07T08:08:40.459Z,57.92
2023-01-07T08:09:40.545Z,56.54
2023-01-07T08:10:40.431Z,55.62
2023-01-07T08:11:40.463Z,55.18
2023-01-07T08:12:40.406Z,55.69
2023-01-07T08:13:40.399Z,59.24
2023-01-07T08:14:42.140Z,56.03
2023-01-07T08:15:40.388Z,53.96
2023-01-07T08:16:40.361Z,55.28
2023-01-07T08:17:40.395Z,56.62
2023-01-07T08:18:40.341Z,56.21
2023-01-07T08:19:40.335Z,57.04
2023-01-07T08:20:40.332Z,57.66
2023-01-07T08:21:40.315Z,57.56
2023-01-07T08:22:40.298Z,56.93
2023-01-07T08:23:40.410Z,57.14
2023-01-07T08:24:40.277Z,56.62
2023-01-07T08:25:40.277Z,56.00
2023-01-07T08:26:40.260Z,55.90
2023-01-07T08:27:40.255Z,55.69
2023-01-07T08:28:40.240Z,55.35
2023-01-07T08:29:40.272Z,54.94
2023-01-07T08:30:40.237Z,55.87
2023-01-07T08:31:40.271Z,55.25
2023-01-07T08:32:40.190Z,58.04
2023-01-07T08:33:40.185Z,59.31
2023-01-07T08:34:40.167Z,59.96
2023-01-07T08:35:40.216Z,58.62
2023-01-07T08:36:40.154Z,57.87
2023-01-07T08:37:40.140Z,56.52
2023-01-07T08:38:40.123Z,56.18
2023-01-07T08:39:40.229Z,57.84
2023-01-07T08:40:40.111Z,60.17
2023-01-07T08:41:40.138Z,57.58
2023-01-07T08:42:40.092Z,56.85
2023-01-07T08:43:40.072Z,57.45
2023-01-07T08:44:40.061Z,59.21
2023-01-07T08:45:40.052Z,59.55
2023-01-07T08:46:40.099Z,58.38
2023-01-07T08:47:40.075Z,57.87
2023-01-07T08:48:40.017Z,58.72
2023-01-07T08:49:40.010Z,59.83
2023-01-07T08:50:40.000Z,60.27
2023-01-07T08:51:39.987Z,59.21
2023-01-07T08:52:39.972Z,56.93
2023-01-07T08:53:40.006Z,58.69
2023-01-07T08:54:39.948Z,56.21
2023-01-07T08:55:40.072Z,56.54
2023-01-07T08:56:39.936Z,56.49
2023-01-07T08:57:39.918Z,56.31
2023-01-07T08:58:39.916Z,57.87
2023-01-07T08:59:39.970Z,57.76
2023-01-07T09:00:39.937Z,57.32
2023-01-07T09:01:40.068Z,58.25
2023-01-07T09:02:39.880Z,57.22
2023-01-07T09:03:39.854Z,56.49
2023-01-07T09:04:39.841Z,56.49
2023-01-07T09:05:39.974Z,54.94
2023-01-07T09:06:39.834Z,55.43
2023-01-07T09:07:39.826Z,55.56
2023-01-07T09:08:39.802Z,55.54
2023-01-07T09:09:39.814Z,55.12
2023-01-07T09:10:39.777Z,53.03
2023-01-07T09:11:39.908Z,53.75
2023-01-07T09:12:39.772Z,53.96
2023-01-07T09:13:39.745Z,53.96
2023-01-07T09:14:39.756Z,53.23
2023-01-07T09:15:39.724Z,53.65
2023-01-07T09:16:39.758Z,53.75
2023-01-07T09:17:39.707Z,53.75
2023-01-07T09:18:39.702Z,53.73
2023-01-07T09:19:39.724Z,53.63
2023-01-07T09:20:39.671Z,53.96
2023-01-07T09:21:39.662Z,53.83
2023-01-07T09:22:39.649Z,54.14
2023-01-07T09:23:39.654Z,56.03
2023-01-07T09:24:39.623Z,55.51
2023-01-07T09:25:39.637Z,55.20
2023-01-07T09:26:39.611Z,55.51
2023-01-07T09:27:39.715Z,55.74
2023-01-07T09:28:39.585Z,54.91
2023-01-07T09:29:39.593Z,53.23
2023-01-07T09:30:39.566Z,52.49
2023-01-07T09:31:39.658Z,52.39
2023-01-07T09:32:39.538Z,52.57
2023-01-07T09:33:39.529Z,53.60
2023-01-07T09:34:39.514Z,52.57
2023-01-07T09:35:39.519Z,52.80
2023-01-07T09:36:39.498Z,52.36
2023-01-07T09:37:39.551Z,52.67
2023-01-07T09:38:39.472Z,53.50
2023-01-07T09:39:39.467Z,54.76
2023-01-07T09:40:39.486Z,55.30
2023-01-07T09:41:39.441Z,53.73
2023-01-07T09:42:39.429Z,53.75
2023-01-07T09:43:58.864Z,53.96
2023-01-07T09:44:40.405Z,53.86
2023-01-07T09:45:39.447Z,53.52
2023-01-07T09:46:39.394Z,53.68
2023-01-07T09:47:39.388Z,52.37
2023-01-07T09:48:39.365Z,52.09
2023-01-07T09:49:39.389Z,50.91
2023-01-07T09:50:39.342Z,51.17
2023-01-07T09:51:39.353Z,50.69
2023-01-07T09:52:39.321Z,49.13
2023-01-07T09:53:39.326Z,48.90
2023-01-07T09:54:39.298Z,47.46
2023-01-07T09:55:39.318Z,45.90
2023-01-07T09:56:40.302Z,45.80
2023-01-07T09:57:39.270Z,45.70
2023-01-07T09:58:39.278Z,45.98
2023-01-07T09:59:39.384Z,45.51
2023-01-07T10:00:39.233Z,45.80
2023-01-07T10:01:39.264Z,45.50
2023-01-07T10:02:39.252Z,47.50
2023-01-07T10:03:39.300Z,46.23
2023-01-07T10:04:39.202Z,46.04
2023-01-07T10:05:39.182Z,46.51
2023-01-07T10:06:43.861Z,43.77
2023-01-07T10:07:40.179Z,44.82
2023-01-07T10:08:39.172Z,46.23
2023-01-07T10:09:39.148Z,44.92
2023-01-07T10:10:39.136Z,45.64
2023-01-07T10:11:39.118Z,46.00
2023-01-07T10:12:39.102Z,45.26
2023-01-07T10:13:39.116Z,44.88
2023-01-07T10:14:39.181Z,43.88
2023-01-07T10:15:39.188Z,42.44
2023-01-07T10:16:39.122Z,44.08
2023-01-07T10:17:39.057Z,43.55
2023-01-07T10:18:39.038Z,44.78
2023-01-07T10:19:39.053Z,42.53
2023-01-07T10:20:39.028Z,41.08
2023-01-07T10:21:39.014Z,42.49
2023-01-07T10:22:39.003Z,42.59
2023-01-07T10:23:38.994Z,42.18
2023-01-07T10:24:38.974Z,42.67
2023-01-07T10:25:39.002Z,42.47
2023-01-07T10:26:38.964Z,41.65
2023-01-07T10:27:38.950Z,41.85
2023-01-07T10:28:38.956Z,42.69
2023-01-07T10:29:38.939Z,42.18
2023-01-07T10:30:40.256Z,42.79
2023-01-07T10:31:39.083Z,41.96
2023-01-07T10:32:38.907Z,43.35
2023-01-07T10:33:38.883Z,41.83
2023-01-07T10:34:38.864Z,44.16
2023-01-07T10:35:38.857Z,42.51
2023-01-07T10:36:38.852Z,42.83
2023-01-07T10:37:38.834Z,41.30
2023-01-07T10:38:38.828Z,41.00
2023-01-07T10:39:38.816Z,41.41
2023-01-07T10:40:38.803Z,41.82
2023-01-07T10:41:38.792Z,41.51
2023-01-07T10:42:38.811Z,43.00
2023-01-07T10:43:38.766Z,41.86
2023-01-07T10:44:38.754Z,40.96
2023-01-07T10:45:38.795Z,40.90
2023-01-07T10:46:38.729Z,40.90
2023-01-07T10:47:38.833Z,42.33
2023-01-07T10:48:38.737Z,42.00
2023-01-07T10:49:38.702Z,40.98
2023-01-07T10:50:38.714Z,42.29
2023-01-07T10:51:38.701Z,40.88
2023-01-07T10:52:38.668Z,41.39
2023-01-07T10:53:38.661Z,40.17
2023-01-07T10:54:38.655Z,40.59
2023-01-07T10:55:38.635Z,40.57
2023-01-07T10:56:38.623Z,40.06
2023-01-07T10:57:38.631Z,40.80
2023-01-07T10:58:38.601Z,41.30
2023-01-07T10:59:38.593Z,41.19
2023-01-07T11:00:38.591Z,42.08
2023-01-07T11:01:38.782Z,40.55
2023-01-07T11:02:38.567Z,42.25
2023-01-07T11:03:38.676Z,42.59
2023-01-07T11:04:38.548Z,41.05
2023-01-07T11:05:38.537Z,40.98
2023-01-07T11:06:38.531Z,42.80
2023-01-07T11:07:38.510Z,42.51
2023-01-07T11:08:38.503Z,42.92
2023-01-07T11:09:38.491Z,41.92
2023-01-07T11:10:38.477Z,42.43
2023-01-07T11:11:38.461Z,42.04
2023-01-07T11:12:38.477Z,40.51
2023-01-07T11:13:38.461Z,41.96
2023-01-07T11:14:38.429Z,43.24
2023-01-07T11:15:38.436Z,42.88
2023-01-07T11:16:38.516Z,44.22
2023-01-07T11:17:38.397Z,44.76
2023-01-07T11:18:38.410Z,45.06
2023-01-07T11:19:38.502Z,45.35
2023-01-07T11:20:38.367Z,45.55
2023-01-07T11:21:42.540Z,45.98
2023-01-07T11:22:39.346Z,45.26
2023-01-07T11:23:38.326Z,45.37
2023-01-07T11:24:38.348Z,46.11
2023-01-07T11:25:38.311Z,45.18
2023-01-07T11:26:38.300Z,46.00
2023-01-07T11:27:38.303Z,45.37
2023-01-07T11:28:38.280Z,44.51
2023-01-07T11:29:38.268Z,43.47
2023-01-07T11:30:38.276Z,43.20
2023-01-07T11:31:38.330Z,43.08
2023-01-07T11:32:38.243Z,44.28
2023-01-07T11:34:01.350Z,42.85
2023-01-07T11:34:39.217Z,42.53
2023-01-07T11:35:38.302Z,43.08
2023-01-07T11:36:38.212Z,43.77
2023-01-07T11:37:38.202Z,44.78
2023-01-07T11:38:38.183Z,44.24
2023-01-07T11:39:38.164Z,43.44
2023-01-07T11:40:38.147Z,44.69
2023-01-07T11:41:38.138Z,45.31
2023-01-07T11:42:38.147Z,44.90
2023-01-07T11:43:38.120Z,43.85
2023-01-07T11:44:38.099Z,42.36
2023-01-07T11:45:38.177Z,43.29
2023-01-07T11:46:38.114Z,42.77
2023-01-07T11:47:38.074Z,42.14
2023-01-07T11:48:38.086Z,43.67
2023-01-07T11:49:38.042Z,43.04
2023-01-07T11:50:38.058Z,42.51
2023-01-07T11:51:38.131Z,41.39
2023-01-07T11:52:38.015Z,41.06
2023-01-07T11:53:38.020Z,41.67
2023-01-07T11:54:38.023Z,42.90
2023-01-07T11:55:37.987Z,43.12
2023-01-07T11:56:37.973Z,43.81
2023-01-07T11:57:37.958Z,42.61
2023-01-07T11:58:37.958Z,42.02
2023-01-07T11:59:37.950Z,41.41
2023-01-07T12:00:37.942Z,43.73
2023-01-07T12:01:37.921Z,43.10
2023-01-07T12:02:38.011Z,42.18
2023-01-07T12:03:38.035Z,40.96
2023-01-07T12:04:37.887Z,42.08
2023-01-07T12:05:37.879Z,41.27
2023-01-07T12:06:37.899Z,43.79
2023-01-07T12:07:37.959Z,42.65
2023-01-07T12:08:37.861Z,42.63
2023-01-07T12:09:37.840Z,39.72
2023-01-07T12:10:37.824Z,40.82
2023-01-07T12:11:37.806Z,40.60
2023-01-07T12:12:37.812Z,39.48
2023-01-07T12:13:37.892Z,39.69
2023-01-07T12:14:37.777Z,39.50
2023-01-07T12:15:37.761Z,40.12
2023-01-07T12:16:37.875Z,41.33
2023-01-07T12:17:37.738Z,38.78
2023-01-07T12:18:37.747Z,41.23
2023-01-07T12:19:38.565Z,41.84
2023-01-07T12:20:37.713Z,40.70
2023-01-07T12:21:37.699Z,40.46
2023-01-07T12:22:37.688Z,40.07
2023-01-07T12:23:37.853Z,40.16
2023-01-07T12:24:37.684Z,41.49
2023-01-07T12:25:37.663Z,40.91
2023-01-07T12:26:37.646Z,40.39
2023-01-07T12:27:37.632Z,42.22
2023-01-07T12:28:37.625Z,41.63
2023-01-07T12:29:37.661Z,41.23
2023-01-07T12:30:37.615Z,41.45
2023-01-07T12:31:37.697Z,41.96
2023-01-07T12:32:37.581Z,42.45
2023-01-07T12:33:37.566Z,41.21
2023-01-07T12:34:37.559Z,41.21
2023-01-07T12:35:37.555Z,41.11
2023-01-07T12:36:37.600Z,41.25
2023-01-07T12:37:38.085Z,41.45
2023-01-07T12:38:37.519Z,42.22
2023-01-07T12:39:37.632Z,41.21
2023-01-07T12:40:37.496Z,41.52
2023-01-07T12:41:37.487Z,41.41
2023-01-07T12:42:37.505Z,41.55
2023-01-07T12:43:37.468Z,41.84
2023-01-07T12:44:37.454Z,41.02
2023-01-07T12:45:37.438Z,41.53
2023-01-07T12:46:37.533Z,41.11
2023-01-07T12:47:37.439Z,40.88
2023-01-07T12:48:37.432Z,41.17
2023-01-07T12:49:37.399Z,40.77
2023-01-07T12:50:38.083Z,40.95
2023-01-07T12:51:37.375Z,40.54
2023-01-07T12:52:37.366Z,40.68